Back to Top

Language: 

My Weather Underground Personal Weather Station Historical Data with Graphs...

Delerius Weather Station Historical Data
Daily Summary for October 9, 2017 Units:  Metric    English   Both
« Previous Day
Next Day »
Daily Weekly Monthly Yearly Custom
  High: Low: Average:
Temperature: 16.6 °C 10.1 °C 12.9 °C
Dew Point: 12.1 °C 9.2 °C 10.7 °C
Humidity: 96 % 70 % 87 %
Wind Speed: 16.1 km/h 0 km/h 4.7 km/h
Wind Gust: 29 km/h - -
Wind:- - West
Pressure: 1019.9 hPa 1012.4 hPa -
Precipitation: 0 mm    
Historical Graphs
 
 
Tabular Data for October 9, 2017
Time Temperature Dew Point Pressure Wind Wind Speed Wind Gust Humidity Rainfall Rate (Hourly) solar Conditions
00:02 10.1 °C 9.2 °C 1019.5 hPa NW 3.2 km/h 8 km/h 94 % 0 mm 0 W/m2
00:07 10.2 °C 9.3 °C 1019.5 hPa NW 4.8 km/h 8 km/h 94 % 0 mm 0 W/m2
00:13 10.2 °C 9.3 °C 1019.9 hPa NW 1.6 km/h 6.4 km/h 94 % 0 mm 0 W/m2
00:18 10.3 °C 9.4 °C 1019.9 hPa Calm   3.2 km/h 94 % 0 mm 0 W/m2
00:23 10.2 °C 9.3 °C 1019.9 hPa Calm     94 % 0 mm 0 W/m2
00:28 10.2 °C 9.3 °C 1019.9 hPa Calm     94 % 0 mm 0 W/m2
00:33 10.1 °C 9.2 °C 1019.9 hPa Calm     94 % 0 mm 0 W/m2
00:38 10.2 °C 9.3 °C 1019.5 hPa Calm     94 % 0 mm 0 W/m2
00:43 10.3 °C 9.6 °C 1019.5 hPa Calm     95 % 0 mm 0 W/m2
00:48 10.3 °C 9.6 °C 1019.5 hPa Calm     95 % 0 mm 0 W/m2
00:53 10.4 °C 9.6 °C 1019.5 hPa Calm     95 % 0 mm 0 W/m2
00:58 10.4 °C 9.6 °C 1019.5 hPa Calm     95 % 0 mm 0 W/m2
01:03 10.3 °C 9.4 °C 1019.5 hPa Calm     94 % 0 mm 0 W/m2
01:08 10.3 °C 9.4 °C 1019.5 hPa Calm     94 % 0 mm 0 W/m2
01:13 10.3 °C 9.4 °C 1019.5 hPa Calm     94 % 0 mm 0 W/m2
01:23 10.4 °C 9.6 °C 1019.2 hPa Calm     95 % 0 mm 0 W/m2
01:28 10.6 °C 9.8 °C 1019.2 hPa Calm     95 % 0 mm 0 W/m2
01:33 10.7 °C 9.9 °C 1019.2 hPa Calm   1.6 km/h 95 % 0 mm 0 W/m2
01:38 10.8 °C 10.1 °C 1019.2 hPa Calm   3.2 km/h 95 % 0 mm 0 W/m2
01:43 10.8 °C 10.1 °C 1019.2 hPa Calm   3.2 km/h 95 % 0 mm 0 W/m2
01:48 10.8 °C 10.1 °C 1019.2 hPa Calm   1.6 km/h 95 % 0 mm 0 W/m2
01:53 10.8 °C 10.1 °C 1019.2 hPa Calm     95 % 0 mm 0 W/m2
01:58 10.9 °C 10.1 °C 1019.2 hPa Calm     95 % 0 mm 0 W/m2
02:03 10.9 °C 10.1 °C 1019.2 hPa Calm     95 % 0 mm 0 W/m2
02:08 10.9 °C 10.1 °C 1019.2 hPa Calm   1.6 km/h 95 % 0 mm 0 W/m2
02:13 11 °C 10.2 °C 1019.2 hPa Calm   1.6 km/h 95 % 0 mm 0 W/m2
02:18 11 °C 10.1 °C 1019.2 hPa Calm     94 % 0 mm 0 W/m2
02:23 10.9 °C 9.9 °C 1019.2 hPa Calm     94 % 0 mm 0 W/m2
02:28 10.8 °C 9.9 °C 1019.2 hPa Calm     94 % 0 mm 0 W/m2
02:33 10.8 °C 9.9 °C 1019.2 hPa Calm     94 % 0 mm 0 W/m2
02:38 10.7 °C 9.8 °C 1018.8 hPa Calm     94 % 0 mm 0 W/m2
02:39 10.7 °C 9.8 °C 1018.8 hPa Calm     94 % 0 mm 0 W/m2
02:44 10.6 °C 9.7 °C 1018.8 hPa Calm   3.2 km/h 94 % 0 mm 0 W/m2
02:49 10.6 °C 9.7 °C 1018.8 hPa Calm   3.2 km/h 94 % 0 mm 0 W/m2
02:54 10.7 °C 9.9 °C 1018.8 hPa Calm     95 % 0 mm 0 W/m2
02:59 10.8 °C 10.1 °C 1018.5 hPa Calm     95 % 0 mm 0 W/m2
03:04 10.9 °C 10.1 °C 1018.5 hPa Calm     95 % 0 mm 0 W/m2
03:10 11 °C 10.2 °C 1018.5 hPa Calm     95 % 0 mm 0 W/m2
03:15 11.1 °C 10.3 °C 1018.5 hPa NW 1.6 km/h 4.8 km/h 95 % 0 mm 0 W/m2
03:17 11.1 °C 10.3 °C 1018.5 hPa NW 1.6 km/h 4.8 km/h 95 % 0 mm 0 W/m2
03:22 11.2 °C 10.4 °C 1018.5 hPa Calm   3.2 km/h 95 % 0 mm 0 W/m2
03:28 11.2 °C 10.4 °C 1018.2 hPa Calm     95 % 0 mm 0 W/m2
03:38 11.1 °C 10.2 °C 1018.5 hPa Calm     94 % 0 mm 0 W/m2
03:43 11 °C 10.1 °C 1018.5 hPa Calm   3.2 km/h 94 % 0 mm 0 W/m2
03:48 11 °C 10.1 °C 1018.5 hPa Calm   3.2 km/h 94 % 0 mm 0 W/m2
03:53 11.1 °C 10.3 °C 1018.2 hPa Calm   1.6 km/h 95 % 0 mm 0 W/m2
03:58 11.1 °C 10.3 °C 1018.2 hPa Calm   4.8 km/h 95 % 0 mm 0 W/m2
04:03 11.2 °C 10.4 °C 1018.2 hPa Calm   4.8 km/h 95 % 0 mm 0 W/m2
04:08 11.2 °C 10.4 °C 1018.2 hPa Calm   1.6 km/h 95 % 0 mm 0 W/m2
04:14 11.2 °C 10.4 °C 1018.2 hPa Calm     95 % 0 mm 0 W/m2
04:19 11.2 °C 10.4 °C 1018.2 hPa Calm     95 % 0 mm 0 W/m2
04:21 11.2 °C 10.4 °C 1018.2 hPa Calm   3.2 km/h 95 % 0 mm 0 W/m2
04:23 11.2 °C 10.4 °C 1018.2 hPa Calm   3.2 km/h 95 % 0 mm 0 W/m2
04:24 11.2 °C 10.4 °C 1018.2 hPa Calm   3.2 km/h 95 % 0 mm 0 W/m2
04:28 11.2 °C 10.4 °C 1018.2 hPa Calm   3.2 km/h 95 % 0 mm 0 W/m2
04:29 11.2 °C 10.4 °C 1018.2 hPa Calm   3.2 km/h 95 % 0 mm 0 W/m2
04:34 11.2 °C 10.4 °C 1018.2 hPa Calm   1.6 km/h 95 % 0 mm 0 W/m2
04:35 11.2 °C 10.4 °C 1018.2 hPa Calm   1.6 km/h 95 % 0 mm 0 W/m2
04:40 11.3 °C 10.6 °C 1018.2 hPa Calm     95 % 0 mm 0 W/m2
04:43 11.3 °C 10.6 °C 1018.2 hPa Calm     95 % 0 mm 0 W/m2
04:48 11.3 °C 10.4 °C 1017.8 hPa Calm     94 % 0 mm 0 W/m2
04:58 11.3 °C 10.4 °C 1017.8 hPa Calm     94 % 0 mm 0 W/m2
05:03 11.2 °C 10.3 °C 1017.8 hPa Calm     94 % 0 mm 0 W/m2
05:08 11.2 °C 10.3 °C 1017.8 hPa Calm     94 % 0 mm 0 W/m2
05:13 11.1 °C 10.2 °C 1017.8 hPa Calm     94 % 0 mm 0 W/m2
05:18 11.1 °C 10.2 °C 1017.8 hPa Calm     94 % 0 mm 0 W/m2
05:23 11.1 °C 10.2 °C 1017.8 hPa Calm   1.6 km/h 94 % 0 mm 0 W/m2
05:29 11.1 °C 10.3 °C 1017.8 hPa Calm   1.6 km/h 95 % 0 mm 0 W/m2
05:33 11.1 °C 10.3 °C 1017.8 hPa Calm   3.2 km/h 95 % 0 mm 0 W/m2
05:38 11.1 °C 10.3 °C 1017.8 hPa Calm   3.2 km/h 95 % 0 mm 0 W/m2
05:43 11.1 °C 10.3 °C 1017.8 hPa Calm     95 % 0 mm 0 W/m2
05:48 11.1 °C 10.3 °C 1017.8 hPa Calm     95 % 0 mm 0 W/m2
05:53 11.1 °C 10.3 °C 1017.5 hPa Calm     95 % 0 mm 0 W/m2
06:03 11.1 °C 10.3 °C 1017.5 hPa Calm     95 % 0 mm 0 W/m2
06:14 11.1 °C 10.3 °C 1017.8 hPa Calm     95 % 0 mm 0 W/m2
06:19 11.1 °C 10.3 °C 1017.8 hPa Calm     95 % 0 mm 0 W/m2
06:24 11.1 °C 10.3 °C 1017.8 hPa Calm     95 % 0 mm 0 W/m2
06:29 11.1 °C 10.3 °C 1017.5 hPa Calm     95 % 0 mm 0 W/m2
06:34 11.1 °C 10.3 °C 1017.8 hPa Calm     95 % 0 mm 0 W/m2
06:39 11.1 °C 10.3 °C 1017.5 hPa Calm     95 % 0 mm 0 W/m2
06:44 11.1 °C 10.3 °C 1017.5 hPa Calm     95 % 0 mm 0 W/m2
06:49 11.1 °C 10.3 °C 1017.5 hPa Calm     95 % 0 mm 0 W/m2
06:54 11.1 °C 10.3 °C 1017.5 hPa Calm     95 % 0 mm 0 W/m2
06:59 11.1 °C 10.3 °C 1017.5 hPa Calm     95 % 0 mm 0 W/m2
07:04 11.1 °C 10.3 °C 1017.5 hPa Calm     95 % 0 mm 0 W/m2
07:09 11.1 °C 10.3 °C 1017.5 hPa Calm     95 % 0 mm 0 W/m2
07:11 11.1 °C 10.3 °C 1017.5 hPa Calm     95 % 0 mm 0 W/m2
07:16 11.2 °C 10.4 °C 1017.5 hPa Calm     95 % 0 mm 0 W/m2
07:21 11.2 °C 10.4 °C 1017.5 hPa Calm   1.6 km/h 95 % 0 mm 0 W/m2
07:26 11.2 °C 10.4 °C 1017.5 hPa Calm   1.6 km/h 95 % 0 mm 0 W/m2
07:31 11.3 °C 10.6 °C 1017.5 hPa Calm   3.2 km/h 95 % 0 mm 0 W/m2
07:37 11.3 °C 10.6 °C 1017.5 hPa Calm   3.2 km/h 95 % 0 mm 5 W/m2
07:42 11.3 °C 10.6 °C 1017.5 hPa NW 1.6 km/h 8 km/h 95 % 0 mm 7 W/m2
07:47 11.4 °C 10.6 °C 1017.5 hPa NW 4.8 km/h 8 km/h 95 % 0 mm 9 W/m2
07:52 11.5 °C 10.7 °C 1017.2 hPa NW 1.6 km/h 8 km/h 95 % 0 mm 11 W/m2
07:57 11.5 °C 10.7 °C 1017.2 hPa Calm   3.2 km/h 95 % 0 mm 11 W/m2
08:02 11.5 °C 10.7 °C 1017.2 hPa Calm     95 % 0 mm 12 W/m2
08:07 11.4 °C 10.6 °C 1017.5 hPa Calm     95 % 0 mm 14 W/m2
08:12 11.3 °C 10.6 °C 1017.5 hPa Calm     95 % 0 mm 12 W/m2
08:17 11.3 °C 10.6 °C 1017.5 hPa Calm     95 % 0 mm 19 W/m2
08:27 11.3 °C 10.6 °C 1017.5 hPa Calm     95 % 0 mm 40 W/m2
08:32 11.4 °C 10.6 °C 1017.5 hPa Calm   4.8 km/h 95 % 0 mm 39 W/m2
08:37 11.5 °C 10.7 °C 1017.5 hPa NW 1.6 km/h 4.8 km/h 95 % 0 mm 33 W/m2
08:42 11.6 °C 11 °C 1017.5 hPa NW 1.6 km/h 6.4 km/h 96 % 0 mm 28 W/m2
08:47 11.7 °C 11.1 °C 1017.5 hPa NW 1.6 km/h 6.4 km/h 96 % 0 mm 33 W/m2
08:52 11.8 °C 11 °C 1017.5 hPa Calm   3.2 km/h 95 % 0 mm 39 W/m2
08:57 11.8 °C 11 °C 1017.5 hPa Calm   1.6 km/h 95 % 0 mm 51 W/m2
09:02 11.9 °C 11.1 °C 1017.5 hPa Calm   1.6 km/h 95 % 0 mm 54 W/m2
09:07 12 °C 11.2 °C 1017.5 hPa Calm   3.2 km/h 95 % 0 mm 60 W/m2
09:12 12.1 °C 11.3 °C 1017.5 hPa Calm   3.2 km/h 95 % 0 mm 67 W/m2
09:17 12.2 °C 11.4 °C 1017.5 hPa North 1.6 km/h 6.4 km/h 95 % 0 mm 69 W/m2
09:22 12.3 °C 11.5 °C 1017.5 hPa North 1.6 km/h 6.4 km/h 95 % 0 mm 76 W/m2
09:27 12.4 °C 11.6 °C 1017.5 hPa North 1.6 km/h 8 km/h 95 % 0 mm 84 W/m2
09:32 12.5 °C 11.7 °C 1017.5 hPa North 3.2 km/h 8 km/h 95 % 0 mm 81 W/m2
09:37 12.6 °C 11.8 °C 1017.5 hPa North 1.6 km/h 6.4 km/h 95 % 0 mm 90 W/m2
09:42 12.7 °C 11.8 °C 1017.5 hPa North 1.6 km/h 6.4 km/h 94 % 0 mm 95 W/m2
09:47 12.8 °C 11.8 °C 1017.5 hPa North 1.6 km/h 4.8 km/h 94 % 0 mm 104 W/m2
09:52 12.9 °C 11.9 °C 1017.5 hPa Calm   3.2 km/h 94 % 0 mm 105 W/m2
09:57 12.9 °C 11.9 °C 1017.5 hPa Calm   3.2 km/h 94 % 0 mm 125 W/m2
10:02 13.1 °C 12 °C 1017.5 hPa Calm     93 % 0 mm 130 W/m2
10:07 13.1 °C 12 °C 1017.5 hPa NW 1.6 km/h 8 km/h 93 % 0 mm 139 W/m2
10:12 13.2 °C 12.1 °C 1017.5 hPa NW 1.6 km/h 8 km/h 93 % 0 mm 116 W/m2
10:17 13.3 °C 12 °C 1017.5 hPa WNW 1.6 km/h 9.7 km/h 92 % 0 mm 128 W/m2
10:22 13.4 °C 11.9 °C 1017.5 hPa WNW 4.8 km/h 9.7 km/h 91 % 0 mm 141 W/m2
10:27 13.5 °C 11.9 °C 1017.5 hPa WNW 6.4 km/h 11.3 km/h 90 % 0 mm 148 W/m2
10:33 13.6 °C 11.8 °C 1017.5 hPa WNW 6.4 km/h 11.3 km/h 89 % 0 mm 148 W/m2
10:38 13.7 °C 11.9 °C 1017.5 hPa WNW 4.8 km/h 11.3 km/h 89 % 0 mm 151 W/m2
10:39 13.7 °C 11.7 °C 1017.5 hPa WNW 6.4 km/h 14.5 km/h 88 % 0 mm 141 W/m2
10:44 13.8 °C 11.7 °C 1017.5 hPa WNW 8 km/h 17.7 km/h 87 % 0 mm 137 W/m2
10:49 13.9 °C 11.8 °C 1017.5 hPa WNW 8 km/h 17.7 km/h 87 % 0 mm 125 W/m2
10:54 14 °C 11.7 °C 1017.5 hPa WNW 9.7 km/h 17.7 km/h 86 % 0 mm 128 W/m2
10:59 14.1 °C 11.6 °C 1017.5 hPa WNW 9.7 km/h 17.7 km/h 85 % 0 mm 130 W/m2
11:04 14.1 °C 11.6 °C 1017.5 hPa WNW 9.7 km/h 17.7 km/h 85 % 0 mm 130 W/m2
11:09 14.2 °C 11.7 °C 1017.2 hPa WNW 9.7 km/h 17.7 km/h 85 % 0 mm 561 W/m2
11:14 14.6 °C 11.9 °C 1017.2 hPa WNW 11.3 km/h 17.7 km/h 84 % 0 mm 566 W/m2
11:19 14.7 °C 11.7 °C 1017.2 hPa West 11.3 km/h 17.7 km/h 82 % 0 mm 178 W/m2
11:25 14.9 °C 11.8 °C 1017.2 hPa West 11.3 km/h 17.7 km/h 82 % 0 mm 483 W/m2
11:30 15.2 °C 11.9 °C 1017.2 hPa West 9.7 km/h 16.1 km/h 81 % 0 mm 494 W/m2
11:35 15.3 °C 11.9 °C 1017.2 hPa West 9.7 km/h 16.1 km/h 80 % 0 mm 513 W/m2
11:40 15.6 °C 11.9 °C 1016.8 hPa West 9.7 km/h 14.5 km/h 79 % 0 mm 506 W/m2
11:45 15.9 °C 11.9 °C 1016.8 hPa West 9.7 km/h 16.1 km/h 77 % 0 mm 540 W/m2
11:50 16.1 °C 11.9 °C 1016.8 hPa West 9.7 km/h 17.7 km/h 76 % 0 mm 626 W/m2
11:55 16.4 °C 11.9 °C 1016.8 hPa WNW 12.9 km/h 24.1 km/h 75 % 0 mm 179 W/m2
12:00 16.5 °C 11.8 °C 1016.8 hPa WNW 12.9 km/h 24.1 km/h 74 % 0 mm 645 W/m2
12:05 16.6 °C 11.9 °C 1016.8 hPa WNW 11.3 km/h 19.3 km/h 74 % 0 mm 207 W/m2
12:10 16.5 °C 12.1 °C 1016.8 hPa West 9.7 km/h 16.1 km/h 75 % 0 mm 197 W/m2
12:15 16.4 °C 11.6 °C 1016.8 hPa West 9.7 km/h 16.1 km/h 73 % 0 mm 125 W/m2
12:20 16.2 °C 11.2 °C 1016.8 hPa West 9.7 km/h 19.3 km/h 72 % 0 mm 127 W/m2
12:25 16.1 °C 11.3 °C 1016.8 hPa WSW 11.3 km/h 20.9 km/h 73 % 0 mm 575 W/m2
12:30 16.4 °C 11.3 °C 1016.8 hPa WSW 14.5 km/h 24.1 km/h 72 % 0 mm 330 W/m2
12:35 16.6 °C 11.3 °C 1016.8 hPa West 16.1 km/h 24.1 km/h 71 % 0 mm 234 W/m2
12:40 16.6 °C 11.1 °C 1016.8 hPa WNW 16.1 km/h 25.7 km/h 70 % 0 mm 214 W/m2
12:45 16.4 °C 10.9 °C 1016.8 hPa WNW 16.1 km/h 25.7 km/h 70 % 0 mm 237 W/m2
12:50 16.4 °C 11.3 °C 1016.8 hPa WNW 16.1 km/h 25.7 km/h 72 % 0 mm 232 W/m2
12:55 16.4 °C 11.6 °C 1016.5 hPa WNW 16.1 km/h 25.7 km/h 73 % 0 mm 476 W/m2
13:00 16.4 °C 11.3 °C 1016.5 hPa WNW 16.1 km/h 24.1 km/h 72 % 0 mm 111 W/m2
13:05 16.2 °C 11.2 °C 1016.5 hPa WNW 16.1 km/h 24.1 km/h 72 % 0 mm 109 W/m2
13:10 15.9 °C 11.3 °C 1016.5 hPa WNW 14.5 km/h 22.5 km/h 74 % 0 mm 105 W/m2
13:16 15.7 °C 11.1 °C 1016.8 hPa WNW 12.9 km/h 20.9 km/h 74 % 0 mm 90 W/m2
13:21 15.6 °C 11.2 °C 1016.8 hPa West 11.3 km/h 20.9 km/h 75 % 0 mm 121 W/m2
13:26 15.4 °C 11 °C 1016.8 hPa West 12.9 km/h 29 km/h 75 % 0 mm 111 W/m2
13:31 15.4 °C 11.2 °C 1016.5 hPa West 12.9 km/h 29 km/h 76 % 0 mm 111 W/m2
13:36 15.3 °C 11.1 °C 1016.5 hPa West 11.3 km/h 17.7 km/h 76 % 0 mm 104 W/m2
13:41 15.2 °C 11.2 °C 1016.5 hPa West 9.7 km/h 17.7 km/h 77 % 0 mm 104 W/m2
13:46 15.2 °C 11.4 °C 1016.5 hPa WSW 8 km/h 14.5 km/h 78 % 0 mm 100 W/m2
13:51 15.1 °C 11.3 °C 1016.5 hPa West 9.7 km/h 17.7 km/h 78 % 0 mm 121 W/m2
13:56 15.1 °C 11.3 °C 1016.5 hPa West 11.3 km/h 17.7 km/h 78 % 0 mm 135 W/m2
14:01 15.1 °C 11.3 °C 1016.1 hPa West 12.9 km/h 17.7 km/h 78 % 0 mm 155 W/m2
14:06 15.1 °C 11.3 °C 1016.1 hPa West 12.9 km/h 17.7 km/h 78 % 0 mm 156 W/m2
14:11 15.1 °C 11.3 °C 1016.1 hPa West 12.9 km/h 19.3 km/h 78 % 0 mm 102 W/m2
14:16 15.1 °C 11.3 °C 1016.1 hPa West 12.9 km/h 19.3 km/h 78 % 0 mm 70 W/m2
14:21 15.1 °C 11.3 °C 1016.1 hPa West 11.3 km/h 17.7 km/h 78 % 0 mm 139 W/m2
14:26 15.1 °C 11.3 °C 1016.1 hPa West 9.7 km/h 16.1 km/h 78 % 0 mm 105 W/m2
14:31 15 °C 11.2 °C 1016.1 hPa West 9.7 km/h 16.1 km/h 78 % 0 mm 65 W/m2
14:36 15 °C 11 °C 1016.1 hPa West 11.3 km/h 17.7 km/h 77 % 0 mm 102 W/m2
14:41 14.9 °C 11.1 °C 1016.1 hPa West 11.3 km/h 17.7 km/h 78 % 0 mm 95 W/m2
14:46 14.9 °C 11.1 °C 1016.1 hPa West 9.7 km/h 14.5 km/h 78 % 0 mm 111 W/m2
14:51 14.9 °C 11.1 °C 1016.1 hPa West 9.7 km/h 17.7 km/h 78 % 0 mm 93 W/m2
14:56 14.9 °C 11.1 °C 1016.1 hPa West 12.9 km/h 22.5 km/h 78 % 0 mm 81 W/m2
15:01 14.8 °C 11 °C 1016.1 hPa West 12.9 km/h 22.5 km/h 78 % 0 mm 169 W/m2
15:11 15.2 °C 11.2 °C 1015.8 hPa West 11.3 km/h 17.7 km/h 77 % 0 mm 482 W/m2
15:21 15.2 °C 10.8 °C 1016.1 hPa WSW 12.9 km/h 20.9 km/h 75 % 0 mm 109 W/m2
15:26 15.1 °C 10.7 °C 1016.1 hPa West 11.3 km/h 19.3 km/h 75 % 0 mm 113 W/m2
15:31 15 °C 10.8 °C 1016.1 hPa West 11.3 km/h 19.3 km/h 76 % 0 mm 109 W/m2
15:36 14.9 °C 10.9 °C 1015.8 hPa West 11.3 km/h 17.7 km/h 77 % 0 mm 95 W/m2
15:39 15 °C 11 °C 1015.8 hPa West 9.7 km/h 17.7 km/h 77 % 0 mm 102 W/m2
15:44 15.1 °C 11.1 °C 1015.8 hPa West 9.7 km/h 14.5 km/h 77 % 0 mm 111 W/m2
15:49 15.1 °C 11.3 °C 1015.8 hPa West 8 km/h 14.5 km/h 78 % 0 mm 114 W/m2
15:54 15.1 °C 10.9 °C 1015.8 hPa West 9.7 km/h 19.3 km/h 76 % 0 mm 120 W/m2
15:59 15.1 °C 11.1 °C 1015.8 hPa West 11.3 km/h 19.3 km/h 77 % 0 mm 88 W/m2
16:04 15.1 °C 11.1 °C 1015.8 hPa WNW 9.7 km/h 14.5 km/h 77 % 0 mm 83 W/m2
16:09 15.2 °C 11.2 °C 1015.8 hPa West 8 km/h 12.9 km/h 77 % 0 mm 128 W/m2
16:15 15.2 °C 11.2 °C 1015.5 hPa West 6.4 km/h 12.9 km/h 77 % 0 mm 116 W/m2
16:20 15.2 °C 11.2 °C 1015.5 hPa West 6.4 km/h 12.9 km/h 77 % 0 mm 81 W/m2
16:25 15.2 °C 11 °C 1015.5 hPa West 6.4 km/h 12.9 km/h 76 % 0 mm 84 W/m2
16:30 15.2 °C 11 °C 1015.5 hPa West 6.4 km/h 12.9 km/h 76 % 0 mm 81 W/m2
16:35 15.3 °C 11.1 °C 1015.5 hPa WNW 4.8 km/h 9.7 km/h 76 % 0 mm 67 W/m2
16:40 15.2 °C 10.8 °C 1015.5 hPa West 6.4 km/h 14.5 km/h 75 % 0 mm 40 W/m2
16:41 15.2 °C 10.8 °C 1015.5 hPa WSW 4.8 km/h 14.5 km/h 75 % 0 mm 37 W/m2
16:46 15.2 °C 10.8 °C 1015.1 hPa WSW 4.8 km/h 11.3 km/h 75 % 0 mm 33 W/m2
16:51 15.2 °C 10.8 °C 1015.1 hPa West 3.2 km/h 8 km/h 75 % 0 mm 40 W/m2
16:56 15.2 °C 11.2 °C 1015.1 hPa West 3.2 km/h 8 km/h 77 % 0 mm 39 W/m2
17:01 15.1 °C 11.3 °C 1015.1 hPa West 1.6 km/h 8 km/h 78 % 0 mm 30 W/m2
17:06 15.1 °C 11.5 °C 1015.1 hPa West 1.6 km/h 4.8 km/h 79 % 0 mm 25 W/m2
17:11 15 °C 11.4 °C 1015.1 hPa West 1.6 km/h 6.4 km/h 79 % 0 mm 18 W/m2
17:16 14.9 °C 11.3 °C 1015.1 hPa West 4.8 km/h 16.1 km/h 79 % 0 mm 11 W/m2
17:21 14.8 °C 11.4 °C 1015.1 hPa West 6.4 km/h 16.1 km/h 80 % 0 mm 11 W/m2
17:26 14.6 °C 11 °C 1015.1 hPa West 6.4 km/h 14.5 km/h 79 % 0 mm 11 W/m2
17:31 14.4 °C 10.8 °C 1015.1 hPa WSW 8 km/h 17.7 km/h 79 % 0 mm 11 W/m2
17:37 14.3 °C 10.7 °C 1015.1 hPa West 9.7 km/h 19.3 km/h 79 % 0 mm 14 W/m2
17:42 14.2 °C 10.6 °C 1015.1 hPa West 11.3 km/h 19.3 km/h 79 % 0 mm 23 W/m2
17:47 14.2 °C 10.6 °C 1015.1 hPa West 11.3 km/h 19.3 km/h 79 % 0 mm 25 W/m2
17:52 14.2 °C 10.6 °C 1015.1 hPa West 11.3 km/h 16.1 km/h 79 % 0 mm 18 W/m2
17:57 14.2 °C 10.6 °C 1015.1 hPa West 9.7 km/h 16.1 km/h 79 % 0 mm 21 W/m2
18:02 14.2 °C 10.6 °C 1015.1 hPa West 8 km/h 14.5 km/h 79 % 0 mm 25 W/m2
18:07 14.1 °C 10.5 °C 1015.1 hPa West 6.4 km/h 11.3 km/h 79 % 0 mm 21 W/m2
18:12 14.1 °C 10.5 °C 1014.8 hPa WSW 6.4 km/h 11.3 km/h 79 % 0 mm 14 W/m2
18:17 14 °C 10.4 °C 1015.1 hPa WSW 6.4 km/h 11.3 km/h 79 % 0 mm 9 W/m2
18:22 13.9 °C 10.3 °C 1015.1 hPa WSW 4.8 km/h 11.3 km/h 79 % 0 mm 0 W/m2
18:27 13.9 °C 10.3 °C 1015.1 hPa WSW 4.8 km/h 8 km/h 79 % 0 mm 0 W/m2
18:32 13.8 °C 10.4 °C 1015.1 hPa WSW 3.2 km/h 8 km/h 80 % 0 mm 0 W/m2
18:37 13.7 °C 10.3 °C 1014.8 hPa WSW 1.6 km/h 6.4 km/h 80 % 0 mm 0 W/m2
18:42 13.7 °C 10.3 °C 1015.1 hPa Calm   4.8 km/h 80 % 0 mm 0 W/m2
18:47 13.6 °C 10.2 °C 1014.8 hPa Calm   4.8 km/h 80 % 0 mm 0 W/m2
18:52 13.6 °C 10.4 °C 1015.1 hPa Calm   4.8 km/h 81 % 0 mm 0 W/m2
18:57 13.4 °C 10.2 °C 1014.8 hPa Calm   1.6 km/h 81 % 0 mm 0 W/m2
19:02 13.3 °C 10.1 °C 1014.8 hPa Calm   1.6 km/h 81 % 0 mm 0 W/m2
19:07 13.2 °C 10.2 °C 1014.8 hPa Calm     82 % 0 mm 0 W/m2
19:12 13.1 °C 10.3 °C 1014.8 hPa Calm     83 % 0 mm 0 W/m2
19:17 13 °C 10.3 °C 1014.8 hPa Calm   3.2 km/h 84 % 0 mm 0 W/m2
19:22 12.9 °C 10.3 °C 1014.8 hPa Calm   3.2 km/h 84 % 0 mm 0 W/m2
19:27 12.8 °C 10.3 °C 1014.8 hPa Calm   1.6 km/h 85 % 0 mm 0 W/m2
19:32 12.9 °C 10.4 °C 1014.8 hPa Calm   3.2 km/h 85 % 0 mm 0 W/m2
19:37 12.9 °C 10.4 °C 1014.8 hPa WSW 1.6 km/h 8 km/h 85 % 0 mm 0 W/m2
19:42 12.9 °C 10.4 °C 1014.4 hPa WSW 1.6 km/h 8 km/h 85 % 0 mm 0 W/m2
19:52 12.8 °C 10.5 °C 1014.4 hPa WSW 1.6 km/h 6.4 km/h 86 % 0 mm 0 W/m2
19:57 12.7 °C 10.4 °C 1014.4 hPa WSW 1.6 km/h 6.4 km/h 86 % 0 mm 0 W/m2
20:02 12.7 °C 10.4 °C 1014.4 hPa WSW 4.8 km/h 14.5 km/h 86 % 0 mm 0 W/m2
20:07 12.7 °C 10.4 °C 1014.4 hPa WSW 4.8 km/h 14.5 km/h 86 % 0 mm 0 W/m2
20:13 12.7 °C 10.4 °C 1014.4 hPa WSW 4.8 km/h 9.7 km/h 86 % 0 mm 0 W/m2
20:14 12.7 °C 10.4 °C 1014.4 hPa WSW 4.8 km/h 9.7 km/h 86 % 0 mm 0 W/m2
20:24 12.8 °C 10.5 °C 1014.1 hPa WSW 1.6 km/h 9.7 km/h 86 % 0 mm 0 W/m2
20:29 12.7 °C 10.4 °C 1014.1 hPa WSW 1.6 km/h 9.7 km/h 86 % 0 mm 0 W/m2
20:34 12.7 °C 10.4 °C 1014.1 hPa SSW 3.2 km/h 11.3 km/h 86 % 0 mm 0 W/m2
20:39 12.6 °C 10.5 °C 1014.1 hPa SSW 4.8 km/h 12.9 km/h 87 % 0 mm 0 W/m2
20:44 12.6 °C 10.5 °C 1014.1 hPa SW 6.4 km/h 12.9 km/h 87 % 0 mm 0 W/m2
20:49 12.6 °C 10.5 °C 1014.1 hPa SW 4.8 km/h 11.3 km/h 87 % 0 mm 0 W/m2
20:54 12.6 °C 10.5 °C 1014.1 hPa SSW 1.6 km/h 8 km/h 87 % 0 mm 0 W/m2
20:59 12.7 °C 10.6 °C 1014.1 hPa Calm   6.4 km/h 87 % 0 mm 0 W/m2
21:04 12.6 °C 10.5 °C 1014.1 hPa Calm     87 % 0 mm 0 W/m2
21:09 12.6 °C 10.5 °C 1014.1 hPa Calm   4.8 km/h 87 % 0 mm 0 W/m2
21:14 12.6 °C 10.5 °C 1014.1 hPa Calm   4.8 km/h 87 % 0 mm 0 W/m2
21:19 12.4 °C 10.1 °C 1014.1 hPa Calm   1.6 km/h 86 % 0 mm 0 W/m2
21:29 12.3 °C 10.2 °C 1014.1 hPa SW 1.6 km/h 8 km/h 87 % 0 mm 0 W/m2
21:34 12.3 °C 10.4 °C 1013.8 hPa WSW 4.8 km/h 16.1 km/h 88 % 0 mm 0 W/m2
21:39 12.3 °C 10.2 °C 1013.8 hPa WSW 8 km/h 16.1 km/h 87 % 0 mm 0 W/m2
21:44 12.3 °C 10.2 °C 1013.8 hPa WSW 9.7 km/h 14.5 km/h 87 % 0 mm 0 W/m2
21:49 12.3 °C 10.2 °C 1013.4 hPa WSW 11.3 km/h 17.7 km/h 87 % 0 mm 0 W/m2
21:54 12.4 °C 10.3 °C 1013.4 hPa WSW 12.9 km/h 19.3 km/h 87 % 0 mm 0 W/m2
21:59 12.5 °C 10.4 °C 1013.4 hPa WSW 12.9 km/h 19.3 km/h 87 % 0 mm 0 W/m2
22:04 12.5 °C 10.4 °C 1013.4 hPa WSW 11.3 km/h 19.3 km/h 87 % 0 mm 0 W/m2
22:09 12.4 °C 10.3 °C 1013.4 hPa WSW 11.3 km/h 16.1 km/h 87 % 0 mm 0 W/m2
22:14 12.4 °C 10.3 °C 1013.4 hPa WSW 9.7 km/h 14.5 km/h 87 % 0 mm 0 W/m2
22:19 12.4 °C 10.4 °C 1013.4 hPa WSW 11.3 km/h 19.3 km/h 88 % 0 mm 0 W/m2
22:24 12.4 °C 10.4 °C 1013.4 hPa WSW 11.3 km/h 19.3 km/h 88 % 0 mm 0 W/m2
22:29 12.4 °C 10.4 °C 1013.4 hPa WSW 11.3 km/h 17.7 km/h 88 % 0 mm 0 W/m2
22:34 12.4 °C 10.4 °C 1013.4 hPa WSW 11.3 km/h 17.7 km/h 88 % 0 mm 0 W/m2
22:39 12.4 °C 10.4 °C 1013.1 hPa WSW 9.7 km/h 17.7 km/h 88 % 0 mm 0 W/m2
22:44 12.4 °C 10.4 °C 1013.4 hPa WSW 9.7 km/h 14.5 km/h 88 % 0 mm 0 W/m2
22:49 12.4 °C 10.4 °C 1013.1 hPa WSW 6.4 km/h 14.5 km/h 88 % 0 mm 0 W/m2
22:55 12.4 °C 10.4 °C 1013.1 hPa WSW 4.8 km/h 11.3 km/h 88 % 0 mm 0 W/m2
23:00 12.3 °C 10.6 °C 1013.1 hPa SW 8 km/h 12.9 km/h 89 % 0 mm 0 W/m2
23:05 12.3 °C 10.6 °C 1013.1 hPa SW 9.7 km/h 12.9 km/h 89 % 0 mm 0 W/m2
23:10 12.3 °C 10.6 °C 1013.1 hPa SW 9.7 km/h 14.5 km/h 89 % 0 mm 0 W/m2
23:20 12.3 °C 10.7 °C 1012.8 hPa SW 8 km/h 12.9 km/h 90 % 0 mm 0 W/m2
23:30 12.4 °C 10.8 °C 1012.8 hPa WSW 8 km/h 12.9 km/h 90 % 0 mm 0 W/m2
23:35 12.5 °C 10.9 °C 1012.8 hPa WSW 8 km/h 17.7 km/h 90 % 0 mm 0 W/m2
23:40 12.6 °C 11 °C 1012.8 hPa WSW 9.7 km/h 17.7 km/h 90 % 0 mm 0 W/m2
23:45 12.6 °C 10.8 °C 1012.4 hPa WSW 11.3 km/h 17.7 km/h 89 % 0 mm 0 W/m2
23:50 12.6 °C 10.8 °C 1012.8 hPa WSW 9.7 km/h 16.1 km/h 89 % 0 mm 0 W/m2
23:55 12.7 °C 10.9 °C 1012.8 hPa WSW 9.7 km/h 16.1 km/h 89 % 0 mm 0 W/m2
Delerius-Weather
Compliments of Weather Underground - 2.25 mb

Data updates at regular intervals.